Time;durP1;ratioP1;P1;durP2;ratioP2;P2;SDS_P1;SDS_P2;PMS_P1;PMS_P2;Temp;Humidity;BMP_temperature;BMP_pressure;BME280_temperature;BME280_humidity;BME280_pressure;Samples;Min_cycle;Max_cycle;Signal;HPM_P1;HPM_P2
2023/07/08 00:00:00;;;;;;;0.80;0.80;;;;;;;;;;5046329;28;20998;-73
2023/07/08 00:02:27;;;;;;;0.80;0.73;;;;;;;;;;5048615;28;21248;-72
2023/07/08 00:04:53;;;;;;;1.30;1.10;;;;;;;;;;5042159;28;20464;-73
2023/07/08 00:07:20;;;;;;;1.27;1.17;;;;;;;;;;5049493;28;20846;-72
2023/07/08 00:09:46;;;;;;;0.80;0.80;;;;;;;;;;5041328;28;20483;-73
2023/07/08 00:12:13;;;;;;;1.03;0.93;;;;;;;;;;5041602;28;20482;-73
2023/07/08 00:14:41;;;;;;;0.80;0.70;;;;;;;;;;5044928;28;20863;-73
2023/07/08 00:17:09;;;;;;;0.80;0.80;;;;;;;;;;5042226;28;20432;-73
2023/07/08 00:19:36;;;;;;;0.80;0.73;;;;;;;;;;5045357;28;20469;-73
2023/07/08 00:22:07;;;;;;;0.80;0.80;;;;;;;;;;5038164;28;20805;-72
2023/07/08 00:24:34;;;;;;;0.70;0.70;;;;;;;;;;5042887;28;20497;-72
2023/07/08 00:27:01;;;;;;;0.80;0.70;;;;;;;;;;5042101;28;20460;-71
2023/07/08 00:29:27;;;;;;;0.80;0.77;;;;;;;;;;5046175;28;20804;-73
2023/07/08 00:31:55;;;;;;;0.80;0.70;;;;;;;;;;5040878;28;20507;-71
2023/07/08 00:34:22;;;;;;;1.40;1.30;;;;;;;;;;5039147;28;20448;-72
2023/07/08 00:36:49;;;;;;;0.90;0.90;;;;;;;;;;5031370;28;20457;-71
2023/07/08 00:39:15;;;;;;;1.47;1.37;;;;;;;;;;5043755;28;20814;-73
2023/07/08 00:41:42;;;;;;;2.30;2.10;;;;;;;;;;5044923;28;20959;-73
2023/07/08 00:44:11;;;;;;;0.80;0.70;;;;;;;;;;5044402;28;20445;-73
2023/07/08 00:46:42;;;;;;;1.57;0.90;;;;;;;;;;5038876;28;20804;-71
2023/07/08 00:49:15;;;;;;;1.43;1.33;;;;;;;;;;5043150;28;20432;-71
2023/07/08 00:51:42;;;;;;;0.80;0.73;;;;;;;;;;5048271;28;21001;-71
2023/07/08 00:54:10;;;;;;;1.00;0.90;;;;;;;;;;5046108;28;20534;-73
2023/07/08 00:56:39;;;;;;;0.80;0.70;;;;;;;;;;5046332;28;20459;-73
2023/07/08 00:59:08;;;;;;;0.80;0.70;;;;;;;;;;5055659;28;20485;-73
2023/07/08 01:01:36;;;;;;;0.80;0.70;;;;;;;;;;5039360;28;20804;-72
2023/07/08 01:04:05;;;;;;;0.70;0.70;;;;;;;;;;5021716;28;20575;-71
2023/07/08 01:06:39;;;;;;;1.37;0.93;;;;;;;;;;5048011;28;20550;-72
2023/07/08 01:09:08;;;;;;;0.80;0.70;;;;;;;;;;5043239;28;20431;-71
2023/07/08 01:11:37;;;;;;;0.70;0.60;;;;;;;;;;5046322;28;20954;-73
2023/07/08 01:14:04;;;;;;;1.20;1.10;;;;;;;;;;5038924;28;20502;-74
2023/07/08 01:16:33;;;;;;;2.70;1.83;;;;;;;;;;5043920;28;20439;-73
2023/07/08 01:19:00;;;;;;;0.70;0.60;;;;;;;;;;5049522;28;20819;-73
2023/07/08 01:21:30;;;;;;;1.20;1.10;;;;;;;;;;5047446;28;20450;-73
2023/07/08 01:23:58;;;;;;;0.80;0.80;;;;;;;;;;5054482;28;20981;-73
2023/07/08 01:26:25;;;;;;;2.13;1.10;;;;;;;;;;5043024;28;20434;-73
2023/07/08 01:28:52;;;;;;;0.93;0.90;;;;;;;;;;5045516;28;20453;-73
2023/07/08 01:31:19;;;;;;;0.83;0.73;;;;;;;;;;5043973;28;20470;-71
2023/07/08 01:33:46;;;;;;;2.10;1.10;;;;;;;;;;5041426;28;20985;-72
2023/07/08 01:36:13;;;;;;;0.90;0.80;;;;;;;;;;5040594;28;20451;-73
2023/07/08 01:38:39;;;;;;;0.80;0.80;;;;;;;;;;5041868;28;20584;-73
2023/07/08 01:41:10;;;;;;;1.03;0.97;;;;;;;;;;5024825;28;20475;-73
2023/07/08 01:43:37;;;;;;;0.77;0.70;;;;;;;;;;5040138;28;20459;-74
2023/07/08 01:46:04;;;;;;;0.80;0.70;;;;;;;;;;5047002;28;20534;-74
2023/07/08 01:48:33;;;;;;;0.80;0.70;;;;;;;;;;5048389;28;20484;-73
2023/07/08 01:51:01;;;;;;;0.80;0.80;;;;;;;;;;5059241;28;20451;-71
2023/07/08 01:53:29;;;;;;;1.10;1.00;;;;;;;;;;5038532;28;20522;-73
2023/07/08 01:55:56;;;;;;;0.90;0.87;;;;;;;;;;5041386;28;20787;-73
2023/07/08 01:58:26;;;;;;;1.30;1.00;;;;;;;;;;5046926;28;20445;-73
2023/07/08 02:00:53;;;;;;;1.20;1.10;;;;;;;;;;5042904;28;20935;-73
2023/07/08 02:03:22;;;;;;;1.93;1.13;;;;;;;;;;5046987;28;20435;-73
2023/07/08 02:05:49;;;;;;;1.50;1.40;;;;;;;;;;5038449;28;20482;-73
2023/07/08 02:08:15;;;;;;;1.00;0.93;;;;;;;;;;5046488;28;20474;-73
2023/07/08 02:10:42;;;;;;;1.27;0.80;;;;;;;;;;5031159;28;20958;-71
2023/07/08 02:13:09;;;;;;;1.00;0.90;;;;;;;;;;5041101;28;20507;-73
2023/07/08 02:15:37;;;;;;;2.83;1.27;;;;;;;;;;5036977;28;20961;-73
2023/07/08 02:18:04;;;;;;;1.27;1.17;;;;;;;;;;5045833;28;20450;-73
2023/07/08 02:20:30;;;;;;;1.00;0.80;;;;;;;;;;5044059;28;20509;-74
2023/07/08 02:22:57;;;;;;;0.80;0.70;;;;;;;;;;5044150;28;20906;-73
2023/07/08 02:25:24;;;;;;;0.80;0.70;;;;;;;;;;5046161;28;20447;-73
2023/07/08 02:27:51;;;;;;;1.20;1.10;;;;;;;;;;5030205;28;20447;-73
2023/07/08 02:30:18;;;;;;;0.80;0.70;;;;;;;;;;5038923;28;20955;-72
2023/07/08 02:32:56;;;;;;;0.80;0.70;;;;;;;;;;5036565;28;20430;-73
2023/07/08 02:35:24;;;;;;;2.60;2.50;;;;;;;;;;5046335;28;20439;-73
2023/07/08 02:37:50;;;;;;;0.83;0.70;;;;;;;;;;5038557;28;20467;-73
2023/07/08 02:40:17;;;;;;;0.70;0.67;;;;;;;;;;5045821;28;20468;-74
2023/07/08 02:42:44;;;;;;;1.27;1.17;;;;;;;;;;5050820;28;20546;-74
2023/07/08 02:45:11;;;;;;;0.70;0.67;;;;;;;;;;5049065;28;20435;-74
2023/07/08 02:47:38;;;;;;;0.70;0.70;;;;;;;;;;5046879;28;20453;-74
2023/07/08 02:50:07;;;;;;;0.70;0.60;;;;;;;;;;5051072;28;20476;-74
2023/07/08 02:52:33;;;;;;;0.70;0.60;;;;;;;;;;5044734;28;20557;-73
2023/07/08 02:55:00;;;;;;;0.80;0.70;;;;;;;;;;5048748;28;20445;-71
2023/07/08 02:57:27;;;;;;;0.80;0.70;;;;;;;;;;5044468;28;20486;-71
2023/07/08 02:59:53;;;;;;;0.70;0.60;;;;;;;;;;5039878;28;20470;-73
2023/07/08 03:02:20;;;;;;;2.30;2.10;;;;;;;;;;5028783;28;20538;-71
2023/07/08 03:04:49;;;;;;;0.93;0.93;;;;;;;;;;5045990;28;20496;-73
2023/07/08 03:07:17;;;;;;;0.80;0.70;;;;;;;;;;5042286;28;20520;-73
2023/07/08 03:09:44;;;;;;;0.80;0.70;;;;;;;;;;5044998;28;21103;-73
2023/07/08 03:12:11;;;;;;;0.70;0.60;;;;;;;;;;5042467;28;20455;-73
2023/07/08 03:14:38;;;;;;;0.80;0.77;;;;;;;;;;5044165;28;20436;-73
2023/07/08 03:17:05;;;;;;;0.90;0.90;;;;;;;;;;5048837;28;20448;-73
2023/07/08 03:19:32;;;;;;;0.80;0.80;;;;;;;;;;5046398;28;20440;-73
2023/07/08 03:22:02;;;;;;;0.80;0.73;;;;;;;;;;5041290;28;20478;-73
2023/07/08 03:24:30;;;;;;;0.70;0.60;;;;;;;;;;5045596;28;20522;-73
2023/07/08 03:27:04;;;;;;;0.80;0.70;;;;;;;;;;5027719;28;20443;-72
2023/07/08 03:29:34;;;;;;;0.70;0.60;;;;;;;;;;5051434;28;20440;-73
2023/07/08 03:32:00;;;;;;;0.80;0.70;;;;;;;;;;5027695;28;20928;-73
2023/07/08 03:34:27;;;;;;;0.70;0.70;;;;;;;;;;5048499;28;20463;-73
2023/07/08 03:36:54;;;;;;;0.80;0.80;;;;;;;;;;5028971;28;20464;-73
2023/07/08 03:39:22;;;;;;;0.80;0.70;;;;;;;;;;5045872;28;20949;-73
2023/07/08 03:41:50;;;;;;;0.77;0.70;;;;;;;;;;5043905;28;20571;-72
2023/07/08 03:44:18;;;;;;;0.70;0.70;;;;;;;;;;5046800;28;20802;-73
2023/07/08 03:46:45;;;;;;;0.80;0.70;;;;;;;;;;5041687;28;20445;-73
2023/07/08 03:49:14;;;;;;;1.20;1.10;;;;;;;;;;5041373;28;20989;-71
2023/07/08 03:51:41;;;;;;;0.80;0.80;;;;;;;;;;5046387;28;20503;-71
2023/07/08 03:54:11;;;;;;;0.83;0.70;;;;;;;;;;5044950;28;20546;-74
2023/07/08 03:56:38;;;;;;;0.80;0.80;;;;;;;;;;5027790;28;20485;-71
2023/07/08 03:59:07;;;;;;;0.80;0.80;;;;;;;;;;5050558;28;20481;-72
2023/07/08 04:01:34;;;;;;;0.80;0.70;;;;;;;;;;5046983;28;20469;-73
2023/07/08 04:04:01;;;;;;;0.70;0.70;;;;;;;;;;5042868;28;20436;-73
2023/07/08 04:06:31;;;;;;;0.70;0.70;;;;;;;;;;5041701;28;20433;-72
2023/07/08 04:08:58;;;;;;;1.20;1.10;;;;;;;;;;5041713;28;20510;-72
2023/07/08 04:11:24;;;;;;;0.80;0.70;;;;;;;;;;5037906;28;20472;-72
2023/07/08 04:13:51;;;;;;;0.90;0.90;;;;;;;;;;5041031;28;20442;-73
2023/07/08 04:16:21;;;;;;;3.13;2.93;;;;;;;;;;5037306;28;20842;-72
2023/07/08 04:18:50;;;;;;;0.80;0.73;;;;;;;;;;5045213;28;20444;-71
2023/07/08 04:21:17;;;;;;;0.80;0.70;;;;;;;;;;5044580;28;20804;-73
2023/07/08 04:23:46;;;;;;;0.70;0.70;;;;;;;;;;5041661;28;20478;-73
2023/07/08 04:26:13;;;;;;;0.90;0.80;;;;;;;;;;5043491;28;20524;-75
2023/07/08 04:28:41;;;;;;;0.93;0.87;;;;;;;;;;5044000;28;20452;-74
2023/07/08 04:31:07;;;;;;;0.80;0.80;;;;;;;;;;5040609;28;20495;-73
2023/07/08 04:33:35;;;;;;;0.70;0.70;;;;;;;;;;5040765;28;20782;-73
2023/07/08 04:36:02;;;;;;;0.80;0.80;;;;;;;;;;5045595;28;20959;-73
2023/07/08 04:38:29;;;;;;;0.80;0.80;;;;;;;;;;5041405;28;21325;-73
2023/07/08 04:40:57;;;;;;;0.97;0.90;;;;;;;;;;5038238;28;20560;-73
2023/07/08 04:43:28;;;;;;;0.80;0.70;;;;;;;;;;5038667;28;20449;-73
2023/07/08 04:45:55;;;;;;;0.80;0.70;;;;;;;;;;5039476;28;20795;-73
2023/07/08 04:48:24;;;;;;;0.70;0.70;;;;;;;;;;5041882;28;20478;-72
2023/07/08 04:50:52;;;;;;;0.80;0.80;;;;;;;;;;5038516;28;20510;-72
2023/07/08 04:53:19;;;;;;;1.97;1.00;;;;;;;;;;5039771;28;20971;-73
2023/07/08 04:55:48;;;;;;;0.70;0.70;;;;;;;;;;5039392;28;20441;-71
2023/07/08 04:58:14;;;;;;;0.70;0.70;;;;;;;;;;5024295;28;20446;-72
2023/07/08 05:00:41;;;;;;;0.80;0.70;;;;;;;;;;5043182;28;20941;-73
2023/07/08 05:03:07;;;;;;;0.80;0.80;;;;;;;;;;5048842;28;20434;-74
2023/07/08 05:05:34;;;;;;;0.90;0.90;;;;;;;;;;5043979;28;20427;-72
2023/07/08 05:08:02;;;;;;;0.80;0.70;;;;;;;;;;5040287;28;21591;-73
2023/07/08 05:10:28;;;;;;;0.80;0.70;;;;;;;;;;5047501;28;20453;-74
2023/07/08 05:12:55;;;;;;;0.80;0.70;;;;;;;;;;5041778;28;20443;-73
2023/07/08 05:15:22;;;;;;;0.80;0.80;;;;;;;;;;5040640;28;20529;-73
2023/07/08 05:17:49;;;;;;;0.97;0.90;;;;;;;;;;5045466;28;20531;-72
2023/07/08 05:20:18;;;;;;;0.80;0.80;;;;;;;;;;5057854;28;20490;-73
2023/07/08 05:22:45;;;;;;;1.00;0.80;;;;;;;;;;5036133;28;20497;-72
2023/07/08 05:25:13;;;;;;;0.80;0.80;;;;;;;;;;5039172;28;20434;-72
2023/07/08 05:27:40;;;;;;;0.80;0.80;;;;;;;;;;5046640;28;20447;-74
2023/07/08 05:30:08;;;;;;;0.80;0.80;;;;;;;;;;5043570;28;20444;-74
2023/07/08 05:32:34;;;;;;;0.80;0.70;;;;;;;;;;5044446;28;20455;-72
2023/07/08 05:35:01;;;;;;;0.80;0.70;;;;;;;;;;5037106;28;20874;-72
2023/07/08 05:37:29;;;;;;;1.20;1.10;;;;;;;;;;5042286;28;20485;-74
2023/07/08 05:39:56;;;;;;;0.73;0.60;;;;;;;;;;5041988;28;20493;-74
2023/07/08 05:42:24;;;;;;;1.17;0.97;;;;;;;;;;5044218;28;20567;-75
2023/07/08 05:44:51;;;;;;;0.80;0.70;;;;;;;;;;5040346;28;20428;-74
2023/07/08 05:47:18;;;;;;;0.80;0.70;;;;;;;;;;5040387;28;20490;-73
2023/07/08 05:49:45;;;;;;;1.87;1.07;;;;;;;;;;5044453;28;20447;-74
2023/07/08 05:52:11;;;;;;;1.23;1.13;;;;;;;;;;5044476;28;20456;-74
2023/07/08 05:54:38;;;;;;;1.40;1.27;;;;;;;;;;5040775;28;20850;-73
2023/07/08 05:57:05;;;;;;;4.50;1.13;;;;;;;;;;5041747;28;20527;-74
2023/07/08 05:59:35;;;;;;;0.80;0.80;;;;;;;;;;5026707;28;20448;-74
2023/07/08 06:02:02;;;;;;;0.80;0.70;;;;;;;;;;5041202;28;20940;-74
2023/07/08 06:04:30;;;;;;;0.80;0.70;;;;;;;;;;5040349;28;20967;-73
2023/07/08 06:06:57;;;;;;;0.80;0.80;;;;;;;;;;5034190;28;20939;-74
2023/07/08 06:09:24;;;;;;;1.43;1.33;;;;;;;;;;5037198;28;21008;-74
2023/07/08 06:11:50;;;;;;;0.70;0.60;;;;;;;;;;5043834;28;20436;-74
2023/07/08 06:14:17;;;;;;;2.07;1.43;;;;;;;;;;5040842;28;20519;-75
2023/07/08 06:16:45;;;;;;;1.00;0.80;;;;;;;;;;5039065;28;20436;-74
2023/07/08 06:19:14;;;;;;;0.77;0.67;;;;;;;;;;5043884;28;20433;-74
2023/07/08 06:21:41;;;;;;;0.80;0.70;;;;;;;;;;5040461;28;20442;-74
2023/07/08 06:24:08;;;;;;;0.80;0.80;;;;;;;;;;5040551;28;20415;-75
2023/07/08 06:26:35;;;;;;;0.77;0.73;;;;;;;;;;5047081;28;20428;-75
2023/07/08 06:29:01;;;;;;;0.90;0.90;;;;;;;;;;5034629;28;20429;-75
2023/07/08 06:31:28;;;;;;;1.70;1.00;;;;;;;;;;5040739;28;20940;-75
2023/07/08 06:33:56;;;;;;;1.30;1.00;;;;;;;;;;5038826;28;20513;-75
2023/07/08 06:36:23;;;;;;;0.80;0.70;;;;;;;;;;5043989;28;20537;-75
2023/07/08 06:38:50;;;;;;;1.03;1.00;;;;;;;;;;5040977;28;20469;-75
2023/07/08 06:41:16;;;;;;;1.27;1.17;;;;;;;;;;5040198;28;20474;-75
2023/07/08 06:43:43;;;;;;;0.90;0.80;;;;;;;;;;5036344;28;20781;-74
2023/07/08 06:46:15;;;;;;;1.00;0.90;;;;;;;;;;5038624;28;20432;-73
2023/07/08 06:48:42;;;;;;;0.77;0.70;;;;;;;;;;5039648;28;20411;-74
2023/07/08 06:51:10;;;;;;;0.70;0.60;;;;;;;;;;5039924;28;20518;-74
2023/07/08 06:53:37;;;;;;;2.30;0.97;;;;;;;;;;5039752;28;20467;-75
2023/07/08 06:56:03;;;;;;;1.17;1.10;;;;;;;;;;5045921;28;20472;-74
2023/07/08 06:58:30;;;;;;;1.60;1.50;;;;;;;;;;5041315;28;20544;-75
2023/07/08 07:00:57;;;;;;;0.80;0.80;;;;;;;;;;5045569;28;20445;-75
2023/07/08 07:03:23;;;;;;;0.80;0.70;;;;;;;;;;5041275;28;20472;-74
2023/07/08 07:05:50;;;;;;;0.80;0.70;;;;;;;;;;5045831;28;20422;-75
2023/07/08 07:08:18;;;;;;;0.93;0.83;;;;;;;;;;5042742;28;20558;-75
2023/07/08 07:10:44;;;;;;;0.80;0.80;;;;;;;;;;5036882;28;20493;-74
2023/07/08 07:13:11;;;;;;;1.20;1.10;;;;;;;;;;5040740;28;20411;-73
2023/07/08 07:15:38;;;;;;;0.70;0.60;;;;;;;;;;5047786;28;20498;-76
2023/07/08 07:18:05;;;;;;;2.10;0.80;;;;;;;;;;5029807;28;20440;-74
2023/07/08 07:20:32;;;;;;;1.47;1.37;;;;;;;;;;5041633;28;20977;-76
2023/07/08 07:22:59;;;;;;;1.10;1.00;;;;;;;;;;5038326;28;20526;-75
2023/07/08 07:25:27;;;;;;;1.17;1.07;;;;;;;;;;5037083;28;20441;-72
2023/07/08 07:27:53;;;;;;;0.70;0.60;;;;;;;;;;5043345;28;20427;-76
2023/07/08 07:30:20;;;;;;;1.03;0.90;;;;;;;;;;5048763;28;20575;-75
2023/07/08 07:32:48;;;;;;;2.23;2.03;;;;;;;;;;5028147;28;20402;-72
2023/07/08 07:35:14;;;;;;;3.97;1.33;;;;;;;;;;5040293;28;20835;-75
2023/07/08 07:37:42;;;;;;;0.87;0.70;;;;;;;;;;5041284;28;20496;-74
2023/07/08 07:40:12;;;;;;;1.47;1.20;;;;;;;;;;5045169;28;20887;-74
2023/07/08 07:42:41;;;;;;;0.80;0.70;;;;;;;;;;5041900;28;21042;-73
2023/07/08 07:45:08;;;;;;;0.70;0.60;;;;;;;;;;5038778;28;20437;-75
2023/07/08 07:47:35;;;;;;;0.80;0.80;;;;;;;;;;5047448;28;20447;-75
2023/07/08 07:50:02;;;;;;;1.30;1.20;;;;;;;;;;5045238;28;20559;-74
2023/07/08 07:52:29;;;;;;;0.70;0.60;;;;;;;;;;5042455;28;20464;-74
2023/07/08 07:54:55;;;;;;;1.00;0.80;;;;;;;;;;5041920;28;20443;-75
2023/07/08 07:57:22;;;;;;;1.00;0.90;;;;;;;;;;5046977;28;20456;-75
2023/07/08 07:59:50;;;;;;;1.00;0.80;;;;;;;;;;5039739;28;20475;-75
2023/07/08 08:02:17;;;;;;;0.80;0.70;;;;;;;;;;5042450;28;20446;-75
2023/07/08 08:04:44;;;;;;;1.27;1.17;;;;;;;;;;5044678;28;20412;-75
2023/07/08 08:07:10;;;;;;;1.40;1.30;;;;;;;;;;5048451;28;20475;-75
2023/07/08 08:09:37;;;;;;;0.80;0.80;;;;;;;;;;5045218;28;20428;-75
2023/07/08 08:12:04;;;;;;;0.80;0.80;;;;;;;;;;5042301;28;20494;-75
2023/07/08 08:14:31;;;;;;;0.80;0.80;;;;;;;;;;5042533;28;20445;-75
2023/07/08 08:16:59;;;;;;;0.80;0.70;;;;;;;;;;5045700;28;20858;-75
2023/07/08 08:19:25;;;;;;;0.70;0.60;;;;;;;;;;5046920;28;20425;-74
2023/07/08 08:21:52;;;;;;;0.80;0.80;;;;;;;;;;5040803;28;20474;-75
2023/07/08 08:24:18;;;;;;;0.70;0.60;;;;;;;;;;5041944;28;20447;-74
2023/07/08 08:26:45;;;;;;;1.00;0.90;;;;;;;;;;5042355;28;20436;-75
2023/07/08 08:29:12;;;;;;;1.40;1.07;;;;;;;;;;5039003;28;20429;-75
2023/07/08 08:31:38;;;;;;;0.80;0.70;;;;;;;;;;5043230;28;20475;-75
2023/07/08 08:34:06;;;;;;;0.80;0.73;;;;;;;;;;5042821;28;20459;-74
2023/07/08 08:36:33;;;;;;;1.10;1.00;;;;;;;;;;5043984;28;20491;-74
2023/07/08 08:38:59;;;;;;;2.10;1.53;;;;;;;;;;5039164;28;20440;-76
2023/07/08 08:41:29;;;;;;;0.70;0.60;;;;;;;;;;5029623;28;20443;-75
2023/07/08 08:43:55;;;;;;;0.70;0.60;;;;;;;;;;5040623;28;20488;-75
2023/07/08 08:46:25;;;;;;;1.00;0.90;;;;;;;;;;5043393;28;20443;-75
2023/07/08 08:48:56;;;;;;;0.70;0.60;;;;;;;;;;5043856;28;20437;-75
2023/07/08 08:51:26;;;;;;;1.00;0.73;;;;;;;;;;5040606;28;20482;-75
2023/07/08 08:53:54;;;;;;;0.97;0.97;;;;;;;;;;5043764;28;20546;-75
2023/07/08 08:56:22;;;;;;;0.90;0.80;;;;;;;;;;5042554;28;20428;-76
2023/07/08 08:58:54;;;;;;;0.70;0.63;;;;;;;;;;5041307;28;21027;-74
2023/07/08 09:01:21;;;;;;;0.70;0.60;;;;;;;;;;5043194;28;20768;-75
2023/07/08 09:03:48;;;;;;;1.10;0.90;;;;;;;;;;5045559;28;20488;-75
2023/07/08 09:06:18;;;;;;;0.70;0.60;;;;;;;;;;5035684;28;20436;-75
2023/07/08 09:08:47;;;;;;;1.13;0.93;;;;;;;;;;5044047;28;20927;-76
2023/07/08 09:11:19;;;;;;;0.80;0.70;;;;;;;;;;5049140;28;20555;-76
2023/07/08 09:13:47;;;;;;;0.70;0.60;;;;;;;;;;5039173;28;20433;-76
2023/07/08 09:16:16;;;;;;;1.53;1.43;;;;;;;;;;5039583;28;20472;-76
2023/07/08 09:18:46;;;;;;;1.10;1.00;;;;;;;;;;5046005;28;20543;-77
2023/07/08 09:21:18;;;;;;;0.70;0.60;;;;;;;;;;5046108;28;20429;-76
2023/07/08 09:23:45;;;;;;;1.00;0.67;;;;;;;;;;5052416;28;20558;-76
2023/07/08 09:26:16;;;;;;;0.70;0.60;;;;;;;;;;5039134;28;20778;-72
2023/07/08 09:28:43;;;;;;;0.80;0.60;;;;;;;;;;5045741;28;20445;-75
2023/07/08 09:31:22;;;;;;;1.20;1.10;;;;;;;;;;5048111;28;20428;-77
2023/07/08 09:33:50;;;;;;;1.07;1.00;;;;;;;;;;5040391;28;20436;-76
2023/07/08 09:36:18;;;;;;;1.80;1.70;;;;;;;;;;5041681;28;20444;-76
2023/07/08 09:38:47;;;;;;;0.80;0.70;;;;;;;;;;5045674;28;20811;-76
2023/07/08 09:41:28;;;;;;;1.17;0.80;;;;;;;;;;5042424;28;20785;-79
2023/07/08 09:44:02;;;;;;;0.80;0.60;;;;;;;;;;5042022;28;20519;-77
2023/07/08 09:46:34;;;;;;;0.70;0.50;;;;;;;;;;5053028;28;20431;-75
2023/07/08 09:49:09;;;;;;;0.70;0.60;;;;;;;;;;5054714;28;20471;-76
2023/07/08 09:51:35;;;;;;;1.03;0.80;;;;;;;;;;5052769;28;20448;-77
2023/07/08 09:54:02;;;;;;;0.70;0.50;;;;;;;;;;5047284;28;20431;-77
2023/07/08 09:56:30;;;;;;;0.80;0.63;;;;;;;;;;5046872;28;20874;-75
2023/07/08 09:58:56;;;;;;;0.80;0.60;;;;;;;;;;5061767;28;20447;-75
2023/07/08 10:01:25;;;;;;;1.57;1.47;;;;;;;;;;5045763;28;20471;-77
2023/07/08 10:03:57;;;;;;;0.73;0.60;;;;;;;;;;5043923;28;20495;-77
2023/07/08 10:06:28;;;;;;;1.70;1.60;;;;;;;;;;5049386;28;20486;-78
2023/07/08 10:08:55;;;;;;;0.70;0.50;;;;;;;;;;5045787;28;20478;-76
2023/07/08 10:11:26;;;;;;;0.70;0.53;;;;;;;;;;5043202;28;20441;-75
2023/07/08 10:13:56;;;;;;;1.27;1.17;;;;;;;;;;5038570;28;20458;-75
2023/07/08 10:16:39;;;;;;;0.97;0.70;;;;;;;;;;5040873;28;20466;-75
2023/07/08 10:19:11;;;;;;;0.80;0.60;;;;;;;;;;5048585;28;20508;-76
2023/07/08 10:21:43;;;;;;;0.80;0.60;;;;;;;;;;5043707;28;20440;-75
2023/07/08 10:24:20;;;;;;;1.00;0.90;;;;;;;;;;5046646;28;20436;-75
2023/07/08 10:26:49;;;;;;;0.80;0.50;;;;;;;;;;5046382;28;20470;-75
2023/07/08 10:29:24;;;;;;;0.80;0.60;;;;;;;;;;5040978;28;20488;-75
2023/07/08 10:31:55;;;;;;;0.90;0.60;;;;;;;;;;5048554;28;20494;-75
2023/07/08 10:34:26;;;;;;;1.00;0.90;;;;;;;;;;5027099;28;20444;-76
2023/07/08 10:36:59;;;;;;;1.00;0.80;;;;;;;;;;5044471;28;20519;-78
2023/07/08 10:39:37;;;;;;;0.80;0.60;;;;;;;;;;5041600;28;20534;-79
2023/07/08 10:42:09;;;;;;;1.10;0.97;;;;;;;;;;5041372;28;20491;-76
2023/07/08 10:44:39;;;;;;;0.90;0.80;;;;;;;;;;5039968;28;20962;-75
2023/07/08 10:47:11;;;;;;;0.80;0.50;;;;;;;;;;5043336;28;20491;-76
2023/07/08 10:49:43;;;;;;;1.00;0.73;;;;;;;;;;5037573;28;20532;-76
2023/07/08 10:52:19;;;;;;;1.23;1.00;;;;;;;;;;5043039;28;20591;-74
2023/07/08 10:55:01;;;;;;;6.50;1.00;;;;;;;;;;5042529;28;20914;-77
2023/07/08 10:57:42;;;;;;;1.00;0.90;;;;;;;;;;5040204;28;20436;-76
2023/07/08 11:00:16;;;;;;;0.80;0.53;;;;;;;;;;5030924;28;20786;-79
2023/07/08 11:03:04;;;;;;;0.90;0.67;;;;;;;;;;5045205;28;20465;-76
2023/07/08 11:05:32;;;;;;;0.90;0.70;;;;;;;;;;5041905;28;20939;-76
2023/07/08 11:08:01;;;;;;;0.80;0.50;;;;;;;;;;5044262;28;20464;-78
2023/07/08 11:10:29;;;;;;;0.90;0.70;;;;;;;;;;5044246;28;20547;-79
2023/07/08 11:12:59;;;;;;;0.80;0.50;;;;;;;;;;5041671;28;20436;-76
2023/07/08 11:15:30;;;;;;;0.80;0.50;;;;;;;;;;5023761;28;20488;-77
2023/07/08 11:17:58;;;;;;;1.00;0.60;;;;;;;;;;5051489;28;20431;-78
2023/07/08 11:20:31;;;;;;;7.13;0.97;;;;;;;;;;5047636;28;20847;-75
2023/07/08 11:23:02;;;;;;;1.10;0.60;;;;;;;;;;5028260;28;20476;-75
2023/07/08 11:25:30;;;;;;;0.80;0.50;;;;;;;;;;5044714;28;20452;-76
2023/07/08 11:27:59;;;;;;;0.90;0.60;;;;;;;;;;5044397;28;20448;-75
2023/07/08 11:30:29;;;;;;;1.03;0.73;;;;;;;;;;5040834;28;20495;-74
2023/07/08 11:32:59;;;;;;;1.43;1.17;;;;;;;;;;5033517;28;20909;-74
2023/07/08 11:35:30;;;;;;;0.80;0.50;;;;;;;;;;5045438;28;20769;-74
2023/07/08 11:37:57;;;;;;;0.90;0.80;;;;;;;;;;5049943;28;20554;-78
2023/07/08 11:40:24;;;;;;;0.90;0.60;;;;;;;;;;5049243;28;20444;-78
2023/07/08 11:42:51;;;;;;;1.07;0.83;;;;;;;;;;5058271;28;20521;-78
2023/07/08 11:45:29;;;;;;;1.73;1.33;;;;;;;;;;5045090;28;20454;-76
2023/07/08 11:48:03;;;;;;;0.90;0.50;;;;;;;;;;5048848;28;20456;-77
2023/07/08 11:50:35;;;;;;;1.93;0.97;;;;;;;;;;5052539;28;20487;-78
2023/07/08 11:53:03;;;;;;;0.90;0.50;;;;;;;;;;5048260;28;21035;-76
2023/07/08 11:55:35;;;;;;;1.50;1.03;;;;;;;;;;5035582;28;20956;-79
2023/07/08 11:58:05;;;;;;;0.90;0.50;;;;;;;;;;5041706;28;20523;-78
2023/07/08 12:00:33;;;;;;;0.90;0.60;;;;;;;;;;5046291;28;20459;-78
2023/07/08 12:03:17;;;;;;;1.00;0.77;;;;;;;;;;5053204;28;20544;-78
2023/07/08 12:05:44;;;;;;;1.10;0.70;;;;;;;;;;5038957;28;20561;-78
2023/07/08 12:08:12;;;;;;;0.90;0.60;;;;;;;;;;5052633;28;20463;-79
2023/07/08 12:10:39;;;;;;;1.00;0.70;;;;;;;;;;5044566;28;20523;-77
2023/07/08 12:13:10;;;;;;;0.93;0.73;;;;;;;;;;5050760;28;20810;-77
2023/07/08 12:15:37;;;;;;;1.00;0.80;;;;;;;;;;5047063;28;20432;-75
2023/07/08 12:18:11;;;;;;;1.10;0.70;;;;;;;;;;5046995;28;20784;-76
2023/07/08 12:20:39;;;;;;;2.10;1.43;;;;;;;;;;5038282;28;20527;-78
2023/07/08 12:23:09;;;;;;;1.00;0.60;;;;;;;;;;5044307;28;20459;-76
2023/07/08 12:25:35;;;;;;;1.13;0.80;;;;;;;;;;5049392;28;21007;-75
2023/07/08 12:28:02;;;;;;;1.03;0.80;;;;;;;;;;5045758;28;20212;-78
2023/07/08 12:30:30;;;;;;;1.00;0.80;;;;;;;;;;5043470;28;20197;-78
2023/07/08 12:32:59;;;;;;;1.50;0.90;;;;;;;;;;5049351;28;20209;-79
2023/07/08 12:35:31;;;;;;;0.90;0.50;;;;;;;;;;5044858;28;20280;-78
2023/07/08 12:38:00;;;;;;;2.33;1.35;;;;;;;;;;5041785;28;20255;-79
2023/07/08 12:40:27;;;;;;;1.00;0.60;;;;;;;;;;5044901;28;20287;-78
2023/07/08 12:42:54;;;;;;;1.00;0.65;;;;;;;;;;5041372;28;20749;-79
2023/07/08 12:45:22;;;;;;;2.72;1.25;;;;;;;;;;5046730;28;20240;-79
2023/07/08 12:47:48;;;;;;;0.90;0.60;;;;;;;;;;5041957;28;20193;-78
2023/07/08 12:50:15;;;;;;;0.90;0.60;;;;;;;;;;5041654;28;20222;-78
2023/07/08 12:52:44;;;;;;;0.90;0.50;;;;;;;;;;5033012;28;20236;-78
2023/07/08 12:55:11;;;;;;;0.90;0.55;;;;;;;;;;5048086;28;20193;-77
2023/07/08 12:57:40;;;;;;;1.23;1.02;;;;;;;;;;5038721;28;20202;-78
2023/07/08 13:00:10;;;;;;;1.23;1.13;;;;;;;;;;5039778;28;20204;-78
2023/07/08 13:02:37;;;;;;;1.00;0.70;;;;;;;;;;5042481;28;20224;-78
2023/07/08 13:05:05;;;;;;;0.90;0.50;;;;;;;;;;5044487;28;20203;-77
2023/07/08 13:07:33;;;;;;;1.10;0.85;;;;;;;;;;5029599;28;20336;-78
2023/07/08 13:10:01;;;;;;;1.33;1.02;;;;;;;;;;5047215;28;20247;-79
2023/07/08 13:12:28;;;;;;;1.38;0.88;;;;;;;;;;5044007;28;20605;-78
2023/07/08 13:14:56;;;;;;;2.17;1.13;;;;;;;;;;5049041;28;20180;-77
2023/07/08 13:17:23;;;;;;;1.15;0.93;;;;;;;;;;5045010;28;20701;-76
2023/07/08 13:19:51;;;;;;;1.00;0.70;;;;;;;;;;5049680;28;20693;-77
2023/07/08 13:22:18;;;;;;;1.00;0.70;;;;;;;;;;5047001;28;20308;-75
2023/07/08 13:24:46;;;;;;;1.00;0.80;;;;;;;;;;5038845;28;20283;-75
2023/07/08 13:27:20;;;;;;;0.90;0.50;;;;;;;;;;5044883;28;20203;-78
2023/07/08 13:29:46;;;;;;;0.90;0.60;;;;;;;;;;5038638;28;20200;-75
2023/07/08 13:32:14;;;;;;;1.00;0.90;;;;;;;;;;5038846;28;20205;-74
2023/07/08 13:34:41;;;;;;;1.00;0.90;;;;;;;;;;5040825;28;20224;-77
2023/07/08 13:37:10;;;;;;;1.33;1.15;;;;;;;;;;5046629;28;20244;-75
2023/07/08 13:39:37;;;;;;;1.58;1.48;;;;;;;;;;5032208;28;20201;-75
2023/07/08 13:42:06;;;;;;;0.90;0.60;;;;;;;;;;5042956;28;20221;-77
2023/07/08 13:44:34;;;;;;;1.00;0.70;;;;;;;;;;5038676;28;20236;-76
2023/07/08 13:47:01;;;;;;;0.90;0.60;;;;;;;;;;5045560;28;20271;-76
2023/07/08 13:49:29;;;;;;;0.90;0.70;;;;;;;;;;5049777;28;20288;-75
2023/07/08 13:52:05;;;;;;;1.17;0.90;;;;;;;;;;5026418;28;20237;-75
2023/07/08 13:54:33;;;;;;;1.48;1.38;;;;;;;;;;5040673;28;20262;-76
2023/07/08 13:57:01;;;;;;;0.95;0.68;;;;;;;;;;5046537;28;20227;-75
2023/07/08 13:59:28;;;;;;;1.50;1.40;;;;;;;;;;5048121;28;20213;-76
2023/07/08 14:01:57;;;;;;;1.27;0.98;;;;;;;;;;5036730;28;20311;-75
2023/07/08 14:04:27;;;;;;;1.00;0.70;;;;;;;;;;5046645;28;20698;-77
2023/07/08 14:06:53;;;;;;;0.98;0.77;;;;;;;;;;5049599;28;20229;-76
2023/07/08 14:09:21;;;;;;;1.58;0.80;;;;;;;;;;5039891;28;20228;-76
2023/07/08 14:11:48;;;;;;;1.10;0.80;;;;;;;;;;5038390;28;20215;-77
2023/07/08 14:14:15;;;;;;;1.23;0.70;;;;;;;;;;5044121;28;20669;-76
2023/07/08 14:16:45;;;;;;;0.90;0.70;;;;;;;;;;5029531;28;20208;-75
2023/07/08 14:19:16;;;;;;;1.00;0.63;;;;;;;;;;5041005;28;20629;-75
2023/07/08 14:21:43;;;;;;;0.90;0.70;;;;;;;;;;5031379;28;20213;-75
2023/07/08 14:24:11;;;;;;;1.00;0.82;;;;;;;;;;5047250;28;20677;-74
2023/07/08 14:26:38;;;;;;;1.37;1.27;;;;;;;;;;5041135;28;20197;-76
2023/07/08 14:29:05;;;;;;;1.00;0.60;;;;;;;;;;5040650;28;20196;-74
2023/07/08 14:31:31;;;;;;;1.10;0.87;;;;;;;;;;5025215;28;20442;-73
2023/07/08 14:34:01;;;;;;;1.10;1.00;;;;;;;;;;5041836;28;20441;-74
2023/07/08 14:36:29;;;;;;;1.33;0.83;;;;;;;;;;5046672;28;20798;-74
2023/07/08 14:38:57;;;;;;;2.10;1.07;;;;;;;;;;5042998;28;20534;-75
2023/07/08 14:41:23;;;;;;;1.70;1.07;;;;;;;;;;5047509;28;20229;-73
2023/07/08 14:43:50;;;;;;;1.10;0.75;;;;;;;;;;5043147;28;20220;-75
2023/07/08 14:46:17;;;;;;;1.80;1.70;;;;;;;;;;5044473;28;20279;-74
2023/07/08 14:48:44;;;;;;;1.20;1.10;;;;;;;;;;5043608;28;20203;-74